Time;durP1;ratioP1;P1;durP2;ratioP2;P2;SDS_P1;SDS_P2;PMS_P1;PMS_P2;Temp;Humidity;BMP_temperature;BMP_pressure;BME280_temperature;BME280_humidity;BME280_pressure;Samples;Min_cycle;Max_cycle;Signal;HPM_P1;HPM_P2
2023/04/09 00:00:42;;;;;;;10.20;6.80;;;7.40;99.90;;;;;;10430533;28;20215;-72
2023/04/09 00:05:43;;;;;;;9.77;7.50;;;7.50;99.90;;;;;;10424573;28;20726;-71
2023/04/09 00:10:44;;;;;;;14.57;8.30;;;7.60;99.90;;;;;;10427193;28;20228;-71
2023/04/09 00:15:45;;;;;;;15.03;8.30;;;7.60;99.90;;;;;;10432229;28;20216;-71
2023/04/09 00:20:45;;;;;;;15.07;8.10;;;7.50;99.90;;;;;;10427255;28;20297;-70
2023/04/09 00:25:46;;;;;;;17.33;7.80;;;7.30;99.90;;;;;;10431684;28;20650;-71
2023/04/09 00:30:46;;;;;;;15.03;8.67;;;7.10;99.90;;;;;;10424842;28;20481;-71
2023/04/09 00:35:47;;;;;;;19.30;9.30;;;7.00;99.90;;;;;;10438224;28;20327;-71
2023/04/09 00:40:49;;;;;;;16.20;8.37;;;6.90;99.90;;;;;;10425832;28;20212;-71
2023/04/09 00:45:50;;;;;;;19.03;8.23;;;6.70;99.90;;;;;;10426220;28;20307;-71
2023/04/09 00:50:51;;;;;;;20.53;8.87;;;6.50;99.90;;;;;;10425070;28;20866;-71
2023/04/09 00:55:54;;;;;;;23.53;10.50;;;6.40;99.90;;;;;;10429507;28;20219;-71
2023/04/09 01:00:56;;;;;;;21.90;10.73;;;6.20;99.90;;;;;;10411261;28;20327;-70
2023/04/09 01:06:09;;;;;;;21.40;10.17;;;6.10;99.90;;;;;;10414004;28;20247;-70
2023/04/09 01:11:27;;;;;;;20.03;9.20;;;6.00;99.90;;;;;;10446317;28;20299;-71
2023/04/09 01:16:31;;;;;;;16.20;8.97;;;5.90;99.90;;;;;;10424691;28;20240;-73
2023/04/09 01:21:33;;;;;;;18.43;8.60;;;5.90;99.90;;;;;;10432723;28;20228;-70
2023/04/09 01:26:51;;;;;;;9.37;7.53;;;5.80;99.90;;;;;;10433949;28;20234;-70
2023/04/09 01:31:54;;;;;;;12.33;7.33;;;5.80;99.90;;;;;;10438776;28;20741;-71
2023/04/09 01:36:58;;;;;;;11.37;7.77;;;5.70;99.90;;;;;;10430777;28;20695;-70
2023/04/09 01:42:02;;;;;;;11.83;7.77;;;5.70;99.90;;;;;;10414572;28;20221;-71
2023/04/09 01:47:03;;;;;;;12.23;7.83;;;5.80;99.90;;;;;;10429823;28;20753;-70
2023/04/09 01:52:04;;;;;;;9.27;7.47;;;5.80;99.90;;;;;;10430402;28;20221;-70
2023/04/09 01:57:04;;;;;;;9.93;7.37;;;5.90;99.90;;;;;;10437495;28;20232;-71
2023/04/09 02:02:23;;;;;;;11.20;8.17;;;5.90;99.90;;;;;;10431628;28;20220;-71
2023/04/09 02:07:38;;;;;;;13.43;7.80;;;5.80;99.90;;;;;;10432873;28;20259;-71
2023/04/09 02:12:44;;;;;;;11.10;8.47;;;5.80;99.90;;;;;;10429960;28;20890;-71
2023/04/09 02:17:45;;;;;;;12.43;7.67;;;5.80;99.90;;;;;;10430695;28;20224;-71
2023/04/09 02:22:45;;;;;;;10.97;7.90;;;5.80;99.90;;;;;;10429283;28;20229;-71
2023/04/09 02:27:46;;;;;;;12.13;8.60;;;5.70;99.90;;;;;;10435901;28;20698;-71
2023/04/09 02:32:47;;;;;;;11.13;8.30;;;5.60;99.90;;;;;;10428966;28;20224;-71
2023/04/09 02:37:47;;;;;;;12.03;9.07;;;5.50;99.90;;;;;;10432472;28;20670;-71
2023/04/09 02:42:48;;;;;;;13.10;9.03;;;5.50;99.90;;;;;;10429640;28;20354;-70
2023/04/09 02:47:48;;;;;;;12.17;9.47;;;5.60;99.90;;;;;;10435306;28;20235;-71
2023/04/09 02:52:49;;;;;;;13.27;9.27;;;5.50;99.90;;;;;;10421460;28;20637;-71
2023/04/09 02:57:49;;;;;;;11.13;8.87;;;5.60;99.90;;;;;;10426462;28;20251;-70
2023/04/09 03:02:50;;;;;;;12.57;8.80;;;5.40;99.90;;;;;;10420193;28;20220;-70
2023/04/09 03:07:51;;;;;;;16.70;10.23;;;5.40;99.90;;;;;;10426501;28;20231;-70
2023/04/09 03:12:51;;;;;;;14.70;9.83;;;5.40;99.90;;;;;;10426527;28;20805;-71
2023/04/09 03:17:52;;;;;;;13.27;9.87;;;5.30;99.90;;;;;;10428175;28;20315;-73
2023/04/09 03:22:52;;;;;;;13.20;10.13;;;5.20;99.90;;;;;;10419258;28;20228;-70
2023/04/09 03:27:53;;;;;;;14.23;9.97;;;5.20;99.90;;;;;;10426689;28;20243;-70
2023/04/09 03:32:54;;;;;;;16.70;11.03;;;5.20;99.90;;;;;;10433905;28;20318;-70
2023/04/09 03:37:54;;;;;;;13.30;9.77;;;5.20;99.90;;;;;;10426988;28;20220;-71
2023/04/09 03:42:55;;;;;;;13.40;9.90;;;5.20;99.90;;;;;;10420335;28;20238;-71
2023/04/09 03:47:55;;;;;;;12.63;10.00;;;5.10;99.90;;;;;;10423025;28;20722;-71
2023/04/09 03:52:56;;;;;;;14.30;10.27;;;5.20;99.90;;;;;;10424649;28;20221;-71
2023/04/09 03:57:56;;;;;;;14.40;10.10;;;5.20;99.90;;;;;;10415374;28;20265;-72
2023/04/09 04:02:57;;;;;;;13.67;10.23;;;5.10;99.90;;;;;;10433089;28;20216;-70
2023/04/09 04:07:57;;;;;;;15.07;11.07;;;5.10;99.90;;;;;;10418709;28;20240;-70
2023/04/09 04:12:58;;;;;;;12.93;9.87;;;5.00;99.90;;;;;;10432307;28;20577;-70
2023/04/09 04:17:59;;;;;;;14.00;9.87;;;5.00;99.90;;;;;;10424514;28;20289;-71
2023/04/09 04:22:59;;;;;;;13.50;10.33;;;4.90;99.90;;;;;;10432104;28;20227;-70
2023/04/09 04:28:00;;;;;;;12.10;9.37;;;4.90;99.90;;;;;;10430787;28;20262;-71
2023/04/09 04:33:00;;;;;;;13.57;9.87;;;4.90;99.90;;;;;;10423299;28;20690;-70
2023/04/09 04:38:01;;;;;;;13.40;10.00;;;4.90;99.90;;;;;;10423325;28;20290;-70
2023/04/09 04:43:01;;;;;;;12.63;9.17;;;4.80;99.90;;;;;;10423050;28;20222;-71
2023/04/09 04:48:02;;;;;;;15.90;10.57;;;4.80;99.90;;;;;;10424222;28;20236;-71
2023/04/09 04:53:03;;;;;;;13.90;10.00;;;4.80;99.90;;;;;;10429618;28;20261;-71
2023/04/09 04:58:04;;;;;;;14.90;10.17;;;4.90;99.90;;;;;;10416793;28;20228;-71
2023/04/09 05:03:04;;;;;;;14.30;10.80;;;4.90;99.90;;;;;;10417852;28;20219;-70
2023/04/09 05:08:06;;;;;;;12.93;9.70;;;4.90;99.90;;;;;;10421512;28;20670;-70
2023/04/09 05:13:06;;;;;;;12.40;8.93;;;4.90;99.90;;;;;;10429693;28;20231;-71
2023/04/09 05:18:07;;;;;;;12.70;9.47;;;5.00;99.90;;;;;;10423819;28;20281;-72
2023/04/09 05:23:09;;;;;;;15.50;10.20;;;5.10;99.90;;;;;;10429014;28;20632;-70
2023/04/09 05:28:12;;;;;;;15.33;10.20;;;5.30;99.90;;;;;;10419712;28;20234;-72
2023/04/09 05:33:13;;;;;;;13.93;9.63;;;5.50;99.90;;;;;;10422163;28;20436;-71
2023/04/09 05:38:14;;;;;;;11.77;8.73;;;5.70;99.90;;;;;;10413882;28;20924;-71
2023/04/09 05:43:15;;;;;;;15.67;9.97;;;5.80;99.90;;;;;;10427702;28;20342;-71
2023/04/09 05:48:19;;;;;;;14.53;9.93;;;5.90;99.90;;;;;;10424763;28;20300;-70
2023/04/09 05:53:21;;;;;;;21.73;11.40;;;6.00;99.90;;;;;;10422668;28;20234;-70
2023/04/09 05:58:21;;;;;;;17.33;11.23;;;6.10;99.90;;;;;;10429397;28;20224;-72
2023/04/09 06:03:22;;;;;;;13.67;10.83;;;6.20;99.90;;;;;;10428665;28;20220;-71
2023/04/09 06:08:22;;;;;;;16.53;10.87;;;6.30;99.90;;;;;;10431359;28;20261;-72
2023/04/09 06:13:23;;;;;;;14.40;10.60;;;6.40;99.90;;;;;;10433880;28;20251;-72
2023/04/09 06:18:24;;;;;;;13.47;10.40;;;6.60;99.90;;;;;;10427749;28;20228;-70
2023/04/09 06:23:24;;;;;;;20.37;11.20;;;6.80;99.90;;;;;;10437282;28;20228;-70
2023/04/09 06:28:25;;;;;;;25.70;13.03;;;7.00;99.90;;;;;;10430887;28;20231;-71
2023/04/09 06:33:26;;;;;;;22.03;12.33;;;7.30;99.90;;;;;;10427793;28;20212;-71
2023/04/09 06:38:26;;;;;;;21.57;12.57;;;7.50;99.90;;;;;;10431588;28;20226;-70
2023/04/09 06:43:27;;;;;;;20.27;12.67;;;7.70;99.90;;;;;;10427100;28;20216;-71
2023/04/09 06:48:27;;;;;;;18.17;11.23;;;7.90;99.90;;;;;;10423361;28;20228;-71
2023/04/09 06:53:28;;;;;;;20.40;12.03;;;8.10;99.90;;;;;;10414529;28;20738;-71
2023/04/09 06:58:29;;;;;;;19.33;12.23;;;8.30;99.90;;;;;;10425379;28;20222;-72
2023/04/09 07:03:29;;;;;;;19.20;11.90;;;8.50;99.90;;;;;;10428048;28;20216;-71
2023/04/09 07:08:30;;;;;;;20.33;12.23;;;8.70;99.90;;;;;;10430126;28;20284;-72
2023/04/09 07:13:31;;;;;;;17.27;11.93;;;8.90;99.90;;;;;;10424601;28;20223;-72
2023/04/09 07:18:32;;;;;;;18.70;12.27;;;9.00;99.90;;;;;;10423118;28;20222;-71
2023/04/09 07:23:36;;;;;;;18.63;13.00;;;9.40;99.90;;;;;;10430049;28;20219;-71
2023/04/09 07:28:36;;;;;;;17.30;13.20;;;10.00;99.90;;;;;;10432091;28;20307;-71
2023/04/09 07:33:37;;;;;;;16.03;12.43;;;10.50;99.90;;;;;;10431509;28;20311;-71
2023/04/09 07:38:37;;;;;;;16.83;13.43;;;11.00;99.90;;;;;;10426409;28;20683;-73
2023/04/09 07:43:39;;;;;;;18.33;13.10;;;11.30;99.90;;;;;;10423674;28;20209;-72
2023/04/09 07:48:39;;;;;;;17.63;14.97;;;11.70;99.90;;;;;;10420585;28;20244;-71
2023/04/09 07:53:41;;;;;;;17.10;14.87;;;12.20;99.90;;;;;;10431618;28;20597;-71
2023/04/09 07:58:41;;;;;;;16.80;15.00;;;13.10;99.90;;;;;;10425909;28;20231;-71
2023/04/09 08:03:42;;;;;;;15.73;14.03;;;14.10;99.90;;;;;;10423364;28;20221;-71
2023/04/09 08:08:43;;;;;;;15.60;14.00;;;14.10;99.90;;;;;;10418520;28;20268;-72
2023/04/09 08:13:44;;;;;;;16.17;14.47;;;15.50;99.90;;;;;;10431521;28;20235;-72
2023/04/09 08:18:44;;;;;;;16.07;14.37;;;16.10;99.90;;;;;;10423874;28;20314;-72
2023/04/09 08:23:45;;;;;;;17.43;14.90;;;15.60;99.90;;;;;;10430455;28;20280;-72
2023/04/09 08:28:46;;;;;;;16.97;15.20;;;15.50;99.90;;;;;;10423776;28;20240;-72
2023/04/09 08:33:46;;;;;;;16.03;14.33;;;16.20;99.90;;;;;;10427234;28;20226;-72
2023/04/09 08:38:47;;;;;;;15.53;14.03;;;17.20;98.40;;;;;;10422009;28;20219;-71
2023/04/09 08:43:48;;;;;;;14.40;13.00;;;18.70;94.90;;;;;;10422090;28;20248;-72
2023/04/09 08:48:55;;;;;;;15.60;14.10;;;19.30;88.40;;;;;;10428758;28;20231;-72
2023/04/09 08:54:00;;;;;;;16.20;14.60;;;17.50;91.10;;;;;;10423502;28;20219;-71
2023/04/09 08:59:01;;;;;;;15.63;14.13;;;16.50;92.60;;;;;;10415605;28;20235;-73
2023/04/09 09:04:07;;;;;;;14.50;13.10;;;16.30;94.30;;;;;;10423827;28;20220;-72
2023/04/09 09:09:09;;;;;;;14.73;13.30;;;17.70;92.10;;;;;;10429535;28;20323;-71
2023/04/09 09:14:15;;;;;;;13.57;12.27;;;19.90;84.10;;;;;;10423172;28;20237;-72
2023/04/09 09:19:25;;;;;;;12.27;11.07;;;19.40;82.40;;;;;;10428681;28;20265;-71
2023/04/09 09:24:26;;;;;;;13.13;11.93;;;22.10;73.30;;;;;;10424116;28;20312;-71
2023/04/09 09:29:27;;;;;;;12.60;11.53;;;23.90;60.60;;;;;;10424617;28;20306;-70
2023/04/09 09:34:27;;;;;;;13.50;12.30;;;23.30;58.20;;;;;;10434752;28;20215;-72
2023/04/09 09:39:43;;;;;;;12.43;11.33;;;23.90;56.50;;;;;;10426654;28;20216;-70
2023/04/09 09:44:44;;;;;;;11.17;10.20;;;23.90;55.10;;;;;;10435593;28;20223;-71
2023/04/09 09:49:50;;;;;;;11.90;10.83;;;25.00;52.50;;;;;;10437139;28;20227;-71
2023/04/09 09:54:52;;;;;;;9.90;9.00;;;22.70;52.70;;;;;;10434299;28;20725;-72
2023/04/09 10:00:02;;;;;;;11.23;10.23;;;23.50;53.40;;;;;;10429181;28;20615;-73
2023/04/09 10:05:06;;;;;;;9.73;8.87;;;24.10;49.90;;;;;;10412407;28;20223;-71
2023/04/09 10:10:08;;;;;;;9.17;8.37;;;25.00;49.80;;;;;;10430165;28;20228;-71
2023/04/09 10:15:09;;;;;;;9.93;9.03;;;26.30;47.70;;;;;;10435345;28;20188;-71
2023/04/09 10:20:12;;;;;;;9.27;8.40;;;26.60;45.60;;;;;;10430420;28;20188;-71
2023/04/09 10:25:13;;;;;;;9.07;8.17;;;23.10;46.80;;;;;;10431764;28;20209;-72
2023/04/09 10:30:43;;;;;;;9.60;8.70;;;21.40;50.50;;;;;;10430446;28;20193;-71
2023/04/09 10:35:46;;;;;;;9.00;8.10;;;19.70;55.10;;;;;;10413306;28;20223;-70
2023/04/09 10:40:48;;;;;;;10.27;9.37;;;17.50;58.90;;;;;;10427195;28;20298;-71
2023/04/09 10:45:52;;;;;;;9.97;8.97;;;16.20;65.50;;;;;;10424882;28;20263;-72
2023/04/09 10:50:52;;;;;;;8.10;7.30;;;16.70;66.30;;;;;;10432840;28;20225;-71
2023/04/09 10:55:54;;;;;;;8.23;7.30;;;17.30;62.10;;;;;;10420145;28;20223;-71
2023/04/09 11:00:55;;;;;;;8.73;7.93;;;17.30;61.40;;;;;;10427195;28;20310;-72
2023/04/09 11:06:01;;;;;;;8.97;8.13;;;18.00;60.70;;;;;;10426247;28;20239;-71
2023/04/09 11:11:02;;;;;;;8.17;7.17;;;17.50;60.20;;;;;;10419198;28;20222;-71
2023/04/09 11:16:05;;;;;;;7.73;6.93;;;17.20;61.90;;;;;;10433909;28;20226;-72
2023/04/09 11:21:06;;;;;;;6.97;6.27;;;16.90;59.40;;;;;;10421404;28;20232;-71
2023/04/09 11:26:08;;;;;;;7.27;6.57;;;17.30;58.40;;;;;;10431782;28;20643;-71
2023/04/09 11:31:09;;;;;;;7.10;6.40;;;17.80;57.70;;;;;;10425191;28;20781;-72
2023/04/09 11:36:09;;;;;;;7.10;6.40;;;17.90;58.40;;;;;;10400174;28;20318;-72
2023/04/09 11:41:12;;;;;;;6.80;6.13;;;17.30;58.50;;;;;;10432354;28;20606;-72
2023/04/09 11:46:13;;;;;;;6.43;5.83;;;17.00;59.10;;;;;;10426150;28;20227;-72
2023/04/09 11:51:13;;;;;;;6.80;6.20;;;17.20;58.70;;;;;;10424520;28;20230;-72
2023/04/09 11:56:15;;;;;;;6.83;5.93;;;16.60;59.00;;;;;;10424459;28;20646;-72
2023/04/09 12:01:15;;;;;;;6.83;6.23;;;16.60;60.80;;;;;;10425182;28;20277;-71
2023/04/09 12:06:20;;;;;;;6.00;5.43;;;17.50;58.80;;;;;;10423687;28;20286;-70
2023/04/09 12:11:31;;;;;;;6.67;5.97;;;17.50;57.20;;;;;;10425006;28;20246;-71
2023/04/09 12:16:34;;;;;;;5.87;5.27;;;17.00;55.60;;;;;;10426840;28;20700;-71
2023/04/09 12:21:55;;;;;;;6.63;5.27;;;16.50;58.80;;;;;;10428381;28;20226;-71
2023/04/09 12:26:56;;;;;;;6.60;5.90;;;16.30;58.50;;;;;;10423227;28;20860;-70
2023/04/09 12:31:56;;;;;;;6.83;6.00;;;16.30;60.40;;;;;;10429591;28;20232;-73
2023/04/09 12:36:57;;;;;;;7.13;6.23;;;16.40;59.30;;;;;;10417685;28;20216;-72
2023/04/09 12:41:57;;;;;;;6.03;5.30;;;16.70;58.90;;;;;;10430978;28;20222;-72
2023/04/09 12:46:58;;;;;;;6.30;5.70;;;16.90;58.40;;;;;;10391680;28;20693;-72
2023/04/09 12:51:59;;;;;;;5.60;5.10;;;16.90;58.90;;;;;;10423043;28;20231;-72
2023/04/09 12:56:59;;;;;;;6.73;6.03;;;16.50;58.40;;;;;;10418541;28;20218;-72
2023/04/09 13:02:00;;;;;;;6.50;5.90;;;16.40;59.30;;;;;;10422233;28;20256;-71
2023/04/09 13:07:00;;;;;;;5.67;5.13;;;16.40;59.70;;;;;;10430951;28;20597;-71
2023/04/09 13:12:01;;;;;;;5.93;5.33;;;16.40;59.20;;;;;;10423178;28;20696;-73
2023/04/09 13:17:02;;;;;;;5.33;4.83;;;16.70;59.60;;;;;;10421079;28;20213;-71
2023/04/09 13:22:05;;;;;;;5.47;4.97;;;16.70;59.30;;;;;;10423285;28;20343;-71
2023/04/09 13:27:08;;;;;;;5.60;5.07;;;17.00;59.10;;;;;;10427795;28;20232;-71
2023/04/09 13:32:09;;;;;;;5.53;4.77;;;17.20;58.20;;;;;;10422345;28;20220;-72
2023/04/09 13:37:10;;;;;;;4.43;4.03;;;17.70;57.30;;;;;;10417685;28;20656;-71
2023/04/09 13:42:10;;;;;;;6.23;5.63;;;17.90;56.60;;;;;;10423897;28;20250;-71
2023/04/09 13:47:12;;;;;;;5.90;5.30;;;17.00;57.80;;;;;;10428215;28;20228;-71
2023/04/09 13:52:13;;;;;;;5.93;5.33;;;16.20;59.80;;;;;;10415122;28;20260;-71
2023/04/09 13:57:13;;;;;;;5.83;5.23;;;16.10;60.10;;;;;;10422052;28;20272;-72
2023/04/09 14:02:14;;;;;;;5.63;5.00;;;16.10;60.60;;;;;;10422616;28;20221;-71
2023/04/09 14:07:14;;;;;;;5.83;4.60;;;15.90;62.10;;;;;;10426610;28;20358;-71
2023/04/09 14:12:15;;;;;;;5.33;4.83;;;16.10;59.80;;;;;;10429717;28;20222;-72
2023/04/09 14:17:16;;;;;;;5.77;5.17;;;16.00;60.50;;;;;;10423477;28;20216;-71
2023/04/09 14:22:16;;;;;;;6.53;4.73;;;15.70;60.80;;;;;;10428755;28;20228;-71
2023/04/09 14:27:17;;;;;;;6.47;5.20;;;15.60;61.30;;;;;;10436464;28;20228;-72
2023/04/09 14:32:18;;;;;;;5.20;4.70;;;15.50;61.40;;;;;;10425520;28;20226;-72
2023/04/09 14:37:18;;;;;;;4.97;4.47;;;15.70;62.30;;;;;;10436542;28;20222;-72
2023/04/09 14:42:19;;;;;;;5.10;4.33;;;15.90;60.50;;;;;;10432469;28;20213;-72
2023/04/09 14:47:20;;;;;;;5.47;4.50;;;16.10;60.60;;;;;;10430702;28;20237;-72
2023/04/09 14:52:20;;;;;;;4.90;4.40;;;16.10;58.80;;;;;;10434025;28;20224;-72
2023/04/09 14:57:21;;;;;;;4.70;4.30;;;16.00;59.20;;;;;;10421010;28;20223;-71
2023/04/09 15:02:22;;;;;;;4.27;3.87;;;15.90;60.50;;;;;;10427135;28;20225;-72
2023/04/09 15:07:22;;;;;;;4.20;3.80;;;15.70;59.40;;;;;;10429912;28;20228;-72
2023/04/09 15:12:23;;;;;;;3.37;3.07;;;15.70;59.40;;;;;;10428923;28;20270;-71
2023/04/09 15:17:24;;;;;;;4.30;3.87;;;15.90;60.50;;;;;;10430881;28;20687;-73
2023/04/09 15:22:25;;;;;;;3.40;3.10;;;15.90;60.00;;;;;;10428274;28;20232;-73
2023/04/09 15:27:25;;;;;;;3.20;2.93;;;15.60;59.90;;;;;;10423854;28;20620;-72
2023/04/09 15:32:28;;;;;;;3.77;3.47;;;15.20;59.50;;;;;;10428134;28;20215;-71
2023/04/09 15:37:28;;;;;;;3.37;2.97;;;15.00;60.30;;;;;;10426665;28;20226;-71
2023/04/09 15:42:29;;;;;;;3.70;3.10;;;14.80;60.50;;;;;;10429265;28;20697;-70
2023/04/09 15:47:31;;;;;;;4.63;4.23;;;14.80;59.40;;;;;;10429053;28;20643;-73
2023/04/09 15:52:32;;;;;;;3.67;3.37;;;14.90;59.60;;;;;;10422504;28;20894;-72
2023/04/09 15:57:32;;;;;;;6.87;6.17;;;15.10;59.60;;;;;;10425014;28;20220;-71
2023/04/09 16:02:33;;;;;;;4.63;4.13;;;15.40;58.90;;;;;;10436870;28;20691;-72
2023/04/09 16:07:33;;;;;;;4.83;4.30;;;15.60;57.50;;;;;;10427737;28;20306;-72
2023/04/09 16:12:34;;;;;;;3.33;3.03;;;15.80;57.50;;;;;;10423626;28;20224;-71
2023/04/09 16:17:35;;;;;;;4.83;4.40;;;15.90;57.00;;;;;;10429568;28;20612;-72
2023/04/09 16:22:35;;;;;;;2.70;2.50;;;16.00;56.60;;;;;;10424667;28;20306;-71
2023/04/09 16:27:36;;;;;;;3.27;2.90;;;15.70;56.50;;;;;;10428835;28;20315;-70
2023/04/09 16:32:36;;;;;;;3.60;3.30;;;15.50;57.60;;;;;;10423837;28;20223;-72
2023/04/09 16:37:37;;;;;;;3.80;3.40;;;15.10;58.70;;;;;;10424877;28;20217;-72
2023/04/09 16:42:38;;;;;;;3.80;3.47;;;14.80;59.90;;;;;;10428680;28;20297;-73
2023/04/09 16:47:38;;;;;;;3.83;3.30;;;14.60;61.60;;;;;;10423409;28;20228;-72
2023/04/09 16:52:42;;;;;;;3.27;2.97;;;14.50;60.70;;;;;;10421737;28;20243;-71
2023/04/09 16:57:43;;;;;;;3.47;3.17;;;14.40;61.20;;;;;;10421642;28;20235;-71
2023/04/09 17:02:44;;;;;;;3.40;3.10;;;14.40;61.80;;;;;;10424826;28;20231;-71
2023/04/09 17:07:45;;;;;;;3.50;3.20;;;14.20;60.80;;;;;;10422157;28;20238;-71
2023/04/09 17:12:46;;;;;;;4.30;3.60;;;14.10;62.40;;;;;;10422689;28;20216;-72
2023/04/09 17:17:49;;;;;;;3.70;3.40;;;14.10;62.30;;;;;;10428600;28;20212;-72
2023/04/09 17:22:50;;;;;;;3.60;3.30;;;13.90;63.70;;;;;;10420423;28;20303;-71
2023/04/09 17:27:52;;;;;;;8.80;6.43;;;13.80;63.60;;;;;;10429077;28;20307;-71
2023/04/09 17:32:52;;;;;;;5.23;4.00;;;13.80;64.20;;;;;;10422604;28;20228;-71
2023/04/09 17:37:53;;;;;;;3.37;3.07;;;13.80;64.70;;;;;;10429366;28;20561;-72
2023/04/09 17:42:54;;;;;;;4.20;3.80;;;13.60;64.90;;;;;;10422812;28;20240;-72
2023/04/09 17:47:55;;;;;;;3.87;3.53;;;13.60;65.20;;;;;;10415836;28;20233;-71
2023/04/09 17:52:56;;;;;;;7.53;6.00;;;13.50;65.20;;;;;;10444479;28;20979;-71
2023/04/09 17:57:56;;;;;;;5.57;4.33;;;13.50;65.80;;;;;;10423459;28;20346;-71
2023/04/09 18:02:57;;;;;;;4.30;3.90;;;13.40;66.20;;;;;;10438096;28;20653;-71
2023/04/09 18:07:58;;;;;;;3.90;3.50;;;13.10;67.20;;;;;;10429745;28;20255;-72
2023/04/09 18:13:02;;;;;;;4.10;3.70;;;12.90;69.10;;;;;;10428552;28;20235;-71
2023/04/09 18:18:03;;;;;;;4.07;3.67;;;12.70;68.70;;;;;;10422458;28;20257;-71
2023/04/09 18:23:03;;;;;;;3.93;3.53;;;12.60;69.70;;;;;;10426608;28;20574;-71
2023/04/09 18:28:04;;;;;;;4.00;3.60;;;12.30;70.30;;;;;;10436454;28;20626;-72
2023/04/09 18:33:05;;;;;;;4.27;3.87;;;12.10;71.90;;;;;;10428056;28;20220;-71
2023/04/09 18:38:05;;;;;;;5.13;4.10;;;11.90;72.80;;;;;;10434997;28;20316;-72
2023/04/09 18:43:06;;;;;;;4.87;3.80;;;11.80;72.60;;;;;;10425024;28;20216;-72
2023/04/09 18:48:07;;;;;;;6.80;5.47;;;11.90;72.20;;;;;;10424337;28;20308;-71
2023/04/09 18:53:08;;;;;;;7.00;5.60;;;11.90;72.00;;;;;;10434636;28;20228;-71
2023/04/09 18:58:13;;;;;;;12.90;9.80;;;11.90;72.20;;;;;;10423241;28;20219;-72
2023/04/09 19:03:20;;;;;;;15.20;9.33;;;11.80;72.70;;;;;;10425303;28;20690;-71
2023/04/09 19:08:21;;;;;;;9.50;7.40;;;11.80;73.40;;;;;;10436884;28;20231;-72
2023/04/09 19:13:21;;;;;;;9.53;7.27;;;11.70;74.00;;;;;;10421884;28;20215;-72
2023/04/09 19:18:22;;;;;;;8.33;5.97;;;11.60;74.50;;;;;;10431585;28;20315;-72
2023/04/09 19:23:23;;;;;;;7.93;6.00;;;11.60;74.90;;;;;;10429281;28;20278;-72
2023/04/09 19:28:23;;;;;;;6.27;5.50;;;11.60;75.10;;;;;;10429798;28;20316;-72
2023/04/09 19:33:25;;;;;;;5.37;4.77;;;11.50;75.40;;;;;;10428344;28;20299;-72
2023/04/09 19:38:26;;;;;;;5.53;4.77;;;11.50;76.00;;;;;;10429350;28;20216;-73
2023/04/09 19:43:26;;;;;;;7.27;4.70;;;11.40;76.60;;;;;;10422879;28;20212;-73
2023/04/09 19:48:27;;;;;;;6.13;4.70;;;11.30;77.40;;;;;;10428354;28;20220;-73
2023/04/09 19:53:29;;;;;;;5.10;4.60;;;11.20;78.40;;;;;;10427971;28;20228;-74
2023/04/09 19:58:31;;;;;;;6.73;4.87;;;11.10;78.80;;;;;;10427549;28;20217;-73
2023/04/09 20:03:32;;;;;;;6.97;4.10;;;11.10;79.20;;;;;;10424330;28;20691;-73
2023/04/09 20:08:32;;;;;;;5.40;4.30;;;11.00;79.70;;;;;;10424056;28;20225;-74
2023/04/09 20:13:33;;;;;;;5.07;4.33;;;10.90;79.90;;;;;;10425445;28;20225;-73
2023/04/09 20:18:33;;;;;;;5.80;5.00;;;10.90;79.90;;;;;;10424250;28;20220;-73
2023/04/09 20:23:35;;;;;;;5.10;4.43;;;10.80;79.70;;;;;;10427654;28;20227;-73
2023/04/09 20:28:36;;;;;;;5.20;4.70;;;10.90;79.40;;;;;;10428812;28;20231;-73
2023/04/09 20:33:36;;;;;;;4.67;4.10;;;10.90;79.20;;;;;;10426794;28;20231;-74
2023/04/09 20:38:37;;;;;;;5.10;4.60;;;10.90;79.20;;;;;;10419920;28;20211;-73
2023/04/09 20:43:38;;;;;;;6.27;4.70;;;11.10;79.00;;;;;;10430710;28;20228;-73
2023/04/09 20:48:38;;;;;;;5.13;4.43;;;11.10;78.80;;;;;;10420239;28;20280;-73
2023/04/09 20:53:39;;;;;;;5.30;4.40;;;11.00;78.90;;;;;;10421184;28;20216;-73
2023/04/09 20:58:40;;;;;;;6.03;5.37;;;10.90;79.20;;;;;;10423057;28;20216;-72
2023/04/09 21:03:41;;;;;;;5.73;4.90;;;10.90;79.40;;;;;;10426002;28;20220;-73
2023/04/09 21:08:42;;;;;;;5.20;4.50;;;10.80;80.00;;;;;;10419720;28;20219;-73
2023/04/09 21:13:43;;;;;;;4.70;4.20;;;10.60;80.60;;;;;;10425126;28;20279;-73
2023/04/09 21:18:44;;;;;;;5.97;5.37;;;10.50;80.80;;;;;;10428237;28;20270;-73
2023/04/09 21:23:44;;;;;;;5.20;4.67;;;10.50;80.50;;;;;;10428077;28;20327;-73
2023/04/09 21:28:49;;;;;;;5.13;4.63;;;10.50;80.80;;;;;;10432835;28;20557;-73
2023/04/09 21:33:49;;;;;;;5.27;4.70;;;10.40;80.90;;;;;;10437631;28;20253;-73
2023/04/09 21:38:50;;;;;;;5.80;5.20;;;10.40;81.10;;;;;;10430267;28;20232;-73
2023/04/09 21:43:51;;;;;;;5.67;5.07;;;10.20;82.20;;;;;;10437533;28;20302;-73
2023/04/09 21:48:51;;;;;;;6.10;5.47;;;10.20;81.80;;;;;;10418332;28;20232;-73
2023/04/09 21:54:07;;;;;;;6.10;5.00;;;10.30;81.50;;;;;;10434285;28;20315;-73
2023/04/09 21:59:07;;;;;;;5.83;4.93;;;10.30;81.70;;;;;;10419567;28;20668;-73
2023/04/09 22:04:08;;;;;;;6.50;5.80;;;10.30;81.50;;;;;;10428662;28;20219;-73
2023/04/09 22:09:09;;;;;;;6.07;5.10;;;10.30;82.00;;;;;;10427825;28;20275;-74
2023/04/09 22:14:10;;;;;;;5.80;5.20;;;10.20;82.00;;;;;;10433375;28;20224;-73
2023/04/09 22:19:12;;;;;;;6.20;5.37;;;10.10;82.50;;;;;;10433219;28;20717;-75
2023/04/09 22:24:14;;;;;;;6.50;5.63;;;10.00;83.30;;;;;;10423860;28;20263;-73
2023/04/09 22:29:15;;;;;;;6.43;5.67;;;10.00;82.80;;;;;;10428278;28;20232;-72
2023/04/09 22:34:15;;;;;;;6.63;5.20;;;10.10;82.70;;;;;;10431612;28;20216;-73
2023/04/09 22:39:16;;;;;;;6.07;5.30;;;10.20;82.40;;;;;;10428183;28;20220;-72
2023/04/09 22:44:17;;;;;;;6.00;5.40;;;10.20;82.50;;;;;;10429577;28;20231;-74
2023/04/09 22:49:22;;;;;;;6.13;5.53;;;10.20;82.70;;;;;;10390148;28;1089815;-72
2023/04/09 22:54:23;;;;;;;6.93;5.93;;;10.20;83.20;;;;;;10431989;28;20239;-73
2023/04/09 22:59:24;;;;;;;6.03;5.43;;;10.10;83.30;;;;;;10425239;28;21019;-74
2023/04/09 23:04:25;;;;;;;6.90;5.90;;;9.90;84.00;;;;;;10422804;28;20315;-73
2023/04/09 23:09:25;;;;;;;6.77;6.07;;;9.90;85.00;;;;;;10428032;28;20235;-72
2023/04/09 23:14:26;;;;;;;6.73;6.03;;;9.80;85.10;;;;;;10425691;28;20573;-73
2023/04/09 23:19:26;;;;;;;6.30;5.63;;;9.90;85.10;;;;;;10430587;28;20223;-72
2023/04/09 23:24:27;;;;;;;6.60;5.60;;;9.90;85.20;;;;;;10429602;28;20331;-73
2023/04/09 23:29:27;;;;;;;7.97;6.57;;;9.80;86.30;;;;;;10428543;28;20220;-73
2023/04/09 23:34:28;;;;;;;6.90;6.17;;;9.60;86.90;;;;;;10430463;28;20220;-73
2023/04/09 23:39:29;;;;;;;7.83;6.80;;;9.40;89.00;;;;;;10427888;28;20626;-74
2023/04/09 23:44:31;;;;;;;6.97;5.93;;;9.30;89.20;;;;;;10424443;28;20254;-73
2023/04/09 23:49:32;;;;;;;7.23;6.43;;;9.10;90.00;;;;;;10428107;28;20263;-73
2023/04/09 23:54:33;;;;;;;6.97;6.27;;;9.00;90.20;;;;;;10426775;28;20290;-72
2023/04/09 23:59:34;;;;;;;9.50;6.93;;;8.90;90.80;;;;;;10421139;28;20216;-72
